Time;durP1;ratioP1;P1;durP2;ratioP2;P2;SDS_P1;SDS_P2;PMS_P1;PMS_P2;Temp;Humidity;BMP_temperature;BMP_pressure;BME280_temperature;BME280_humidity;BME280_pressure;Samples;Min_cycle;Max_cycle;Signal;HPM_P1;HPM_P2
2023/05/16 00:02:14;;;;;;;15.23;12.38;;;;;;;14.07;100.00;64434.38;5071593;28;20576;-59
2023/05/16 00:04:40;;;;;;;13.20;11.45;;;;;;;14.04;100.00;64431.06;5071611;28;20309;-59
2023/05/16 00:07:06;;;;;;;14.95;11.15;;;;;;;14.07;100.00;64431.84;5071388;28;20672;-59
2023/05/16 00:09:31;;;;;;;16.60;12.45;;;;;;;14.18;100.00;64444.47;5071289;28;20227;-60
2023/05/16 00:11:57;;;;;;;16.80;12.75;;;;;;;14.32;100.00;64461.88;5071550;28;20290;-60
2023/05/16 00:14:25;;;;;;;15.83;12.13;;;;;;;14.24;100.00;64453.59;5071743;28;20694;-60
2023/05/16 00:16:51;;;;;;;16.42;11.68;;;;;;;14.20;100.00;64446.13;5071529;28;20321;-60
2023/05/16 00:19:16;;;;;;;18.80;12.35;;;;;;;14.06;100.00;64433.81;5071528;28;20224;-60
2023/05/16 00:21:43;;;;;;;17.35;12.52;;;;;;;14.04;100.00;64426.00;5071217;28;20264;-60
2023/05/16 00:24:09;;;;;;;12.77;11.43;;;;;;;14.09;100.00;64439.09;5071268;28;20216;-59
2023/05/16 00:26:34;;;;;;;19.10;12.50;;;;;;;13.97;100.00;64423.38;5071300;28;20666;-58
2023/05/16 00:29:01;;;;;;;16.25;13.00;;;;;;;14.13;100.00;64440.97;5071062;28;20213;-57
2023/05/16 00:31:27;;;;;;;14.18;12.10;;;;;;;14.08;100.00;64432.94;5071067;28;20209;-57
2023/05/16 00:33:53;;;;;;;20.13;12.27;;;;;;;14.10;100.00;64435.69;5071050;28;20215;-57
2023/05/16 00:36:19;;;;;;;15.43;12.38;;;;;;;14.14;100.00;64439.50;5071076;28;20242;-57
2023/05/16 00:38:45;;;;;;;15.43;12.27;;;;;;;14.13;100.00;64438.97;5071264;28;20221;-57
2023/05/16 00:41:10;;;;;;;15.48;12.07;;;;;;;14.07;100.00;64431.84;5070960;28;20230;-57
2023/05/16 00:43:36;;;;;;;14.63;11.05;;;;;;;14.11;100.00;64434.25;5070912;28;20849;-57
2023/05/16 00:46:01;;;;;;;13.52;11.77;;;;;;;14.17;100.00;64445.91;5071249;28;20602;-57
2023/05/16 00:48:27;;;;;;;18.48;13.32;;;;;;;14.09;100.00;64437.13;5070910;28;20216;-59
2023/05/16 00:50:52;;;;;;;15.32;11.27;;;;;;;14.25;100.00;64451.59;5070998;28;20571;-59
2023/05/16 00:53:19;;;;;;;16.58;12.48;;;;;;;14.14;100.00;64442.06;5070772;28;20246;-60
2023/05/16 00:55:46;;;;;;;17.92;12.23;;;;;;;14.04;100.00;64431.06;5070581;28;20181;-59
2023/05/16 00:58:12;;;;;;;17.30;11.43;;;;;;;14.15;100.00;64445.69;5070908;28;20223;-60
2023/05/16 01:00:37;;;;;;;18.83;12.25;;;;;;;14.10;100.00;64440.19;5070697;28;20512;-60
2023/05/16 01:03:05;;;;;;;15.82;11.80;;;;;;;14.17;100.00;64442.81;5070936;28;20587;-60
2023/05/16 01:05:32;;;;;;;13.07;11.18;;;;;;;14.16;100.00;64441.72;5070541;28;20268;-60
2023/05/16 01:07:57;;;;;;;17.38;11.50;;;;;;;14.09;100.00;64437.13;5070235;28;20378;-62
2023/05/16 01:10:23;;;;;;;16.60;11.85;;;;;;;14.10;100.00;64437.66;5070473;28;20763;-60
2023/05/16 01:13:20;;;;;;;14.88;12.45;;;;;;;14.11;100.00;64439.31;5070472;28;20219;-60
2023/05/16 01:16:12;;;;;;;14.43;11.98;;;;;;;14.06;100.00;64433.25;5039664;28;20201;-57
2023/05/16 01:18:54;;;;;;;18.67;12.02;;;;;;;13.80;100.00;64404.72;5070424;28;20261;-57
2023/05/16 01:21:51;;;;;;;18.65;13.07;;;;;;;14.07;100.00;64434.38;5070383;28;20599;-57
2023/05/16 01:24:30;;;;;;;17.23;11.90;;;;;;;13.99;100.00;64426.13;5032792;28;20258;-60
2023/05/16 01:26:58;;;;;;;17.65;12.90;;;;;;;13.98;100.00;64424.47;5070471;28;20188;-57
2023/05/16 01:29:24;;;;;;;14.13;11.88;;;;;;;13.94;100.00;64420.09;5070435;28;20212;-57
2023/05/16 01:31:49;;;;;;;15.63;11.73;;;;;;;13.98;100.00;64424.47;5070045;28;20596;-57
2023/05/16 01:34:15;;;;;;;16.83;11.38;;;;;;;13.94;100.00;64420.09;5052202;28;20309;-61
2023/05/16 01:37:13;;;;;;;15.43;11.77;;;;;;;13.86;100.00;64411.84;5070283;28;20184;-60
2023/05/16 01:39:46;;;;;;;14.70;11.82;;;;;;;13.80;100.00;64407.78;5069649;28;20250;-59
2023/05/16 01:42:13;;;;;;;15.00;11.45;;;;;;;13.89;100.00;64414.59;5070207;28;20188;-59
2023/05/16 01:44:57;;;;;;;13.95;10.55;;;;;;;13.80;100.00;64402.72;5069993;28;20208;-60
2023/05/16 01:47:26;;;;;;;13.32;11.18;;;;;;;13.86;100.00;64408.75;5070185;28;20200;-60
2023/05/16 01:50:06;;;;;;;16.70;11.48;;;;;;;13.86;100.00;64411.84;5070196;28;20299;-59
2023/05/16 01:52:41;;;;;;;14.20;10.95;;;;;;;13.88;100.00;64414.06;5070172;28;20666;-60
2023/05/16 01:55:14;;;;;;;11.80;10.40;;;;;;;13.93;100.00;64419.00;5070065;28;20192;-59
2023/05/16 01:57:41;;;;;;;15.07;11.20;;;;;;;13.99;100.00;64425.59;5070233;28;20270;-58
2023/05/16 02:00:07;;;;;;;16.20;10.38;;;;;;;13.94;100.00;64420.09;5070103;28;20184;-59
2023/05/16 02:02:33;;;;;;;11.68;9.63;;;;;;;13.96;100.00;64419.75;5069772;28;20189;-58
2023/05/16 02:04:58;;;;;;;11.65;10.20;;;;;;;14.00;100.00;64424.13;5069731;28;20582;-59
2023/05/16 02:07:24;;;;;;;14.88;9.20;;;;;;;14.02;100.00;64426.34;5069767;28;20582;-60
2023/05/16 02:09:50;;;;;;;13.25;8.73;;;;;;;13.98;100.00;64422.50;5069822;28;20639;-59
2023/05/16 02:12:15;;;;;;;13.23;9.57;;;;;;;14.09;100.00;64436.56;5069706;28;20262;-60
2023/05/16 02:14:41;;;;;;;12.27;9.60;;;;;;;14.04;100.00;64431.06;5069752;28;20209;-60
2023/05/16 02:17:06;;;;;;;11.32;9.73;;;;;;;13.93;100.00;64419.00;5069672;28;20630;-61
2023/05/16 02:19:32;;;;;;;16.05;11.05;;;;;;;14.02;100.00;64426.34;5069646;28;20212;-59
2023/05/16 02:21:57;;;;;;;13.30;10.82;;;;;;;13.96;100.00;64422.84;5072578;28;20595;-59
2023/05/16 02:24:22;;;;;;;15.02;10.93;;;;;;;14.00;100.00;64429.22;5073055;28;20219;-60
2023/05/16 02:26:48;;;;;;;15.43;10.35;;;;;;;13.95;100.00;64421.19;5073055;28;20184;-60
2023/05/16 02:29:15;;;;;;;14.52;9.68;;;;;;;13.97;100.00;64423.38;5072843;28;20205;-59
2023/05/16 02:31:41;;;;;;;20.98;11.25;;;;;;;13.98;100.00;64427.00;5073095;28;20217;-59
2023/05/16 02:34:07;;;;;;;12.80;10.70;;;;;;;13.90;100.00;64413.16;5073349;28;20209;-58
2023/05/16 02:36:34;;;;;;;10.70;9.23;;;;;;;13.88;100.00;64410.97;5072791;28;20196;-60
2023/05/16 02:39:00;;;;;;;12.48;9.23;;;;;;;14.05;100.00;64432.72;5073020;28;20263;-58
2023/05/16 02:41:26;;;;;;;9.73;8.55;;;;;;;14.00;100.00;64424.13;5072678;28;20189;-65
2023/05/16 02:43:52;;;;;;;13.60;10.07;;;;;;;13.95;100.00;64424.28;5072838;28;20273;-59
2023/05/16 02:46:25;;;;;;;11.95;8.82;;;;;;;13.89;100.00;64415.16;5072799;28;20564;-59
2023/05/16 02:48:51;;;;;;;10.30;8.25;;;;;;;13.88;100.00;64410.97;5072682;28;20208;-58
2023/05/16 02:51:17;;;;;;;10.45;8.68;;;;;;;13.95;100.00;64418.66;5072664;28;20555;-59
2023/05/16 02:53:43;;;;;;;8.57;7.68;;;;;;;13.92;100.00;64418.44;5072987;28;20236;-60
2023/05/16 02:56:09;;;;;;;11.48;8.05;;;;;;;13.93;100.00;64417.03;5072498;28;20221;-59
2023/05/16 02:58:34;;;;;;;8.80;7.47;;;;;;;13.99;100.00;64425.59;5072716;28;20232;-60
2023/05/16 03:01:00;;;;;;;10.17;8.20;;;;;;;13.99;100.00;64428.69;5072787;28;20189;-59
2023/05/16 03:03:25;;;;;;;9.10;7.35;;;;;;;14.04;100.00;64428.53;5072691;28;20270;-60
2023/05/16 03:05:51;;;;;;;12.23;8.25;;;;;;;14.07;100.00;64434.94;5072319;28;20184;-60
2023/05/16 03:08:16;;;;;;;10.90;8.05;;;;;;;14.13;100.00;64440.97;5082308;22;20303;-59
2023/05/16 03:10:42;;;;;;;11.88;7.90;;;;;;;14.08;100.00;64432.94;5072496;28;20196;-60
2023/05/16 03:13:07;;;;;;;11.60;8.20;;;;;;;14.21;100.00;64449.75;5072289;28;20682;-58
2023/05/16 03:15:33;;;;;;;13.73;7.90;;;;;;;14.03;100.00;64427.44;5072456;28;20185;-59
2023/05/16 03:17:58;;;;;;;16.40;8.00;;;;;;;14.02;100.00;64431.97;5072124;28;20250;-58
2023/05/16 03:20:24;;;;;;;11.65;7.60;;;;;;;14.12;100.00;64442.38;5072353;28;20224;-58
2023/05/16 03:22:49;;;;;;;11.30;8.52;;;;;;;14.00;100.00;64426.69;5072461;28;20568;-61
2023/05/16 03:25:15;;;;;;;10.10;8.60;;;;;;;14.12;100.00;64437.88;5072183;28;20184;-59
2023/05/16 03:27:40;;;;;;;10.07;8.35;;;;;;;14.09;100.00;64434.03;5072607;28;20188;-59
2023/05/16 03:30:07;;;;;;;9.88;8.02;;;;;;;14.08;100.00;64436.00;5072522;28;20604;-60
2023/05/16 03:32:33;;;;;;;16.38;8.77;;;;;;;14.01;100.00;64427.78;5071936;28;20208;-59
2023/05/16 03:34:58;;;;;;;15.77;8.87;;;;;;;13.99;100.00;64423.06;5072124;28;20705;-58
2023/05/16 03:37:24;;;;;;;14.10;8.23;;;;;;;13.91;100.00;64414.28;5072136;28;20647;-58
2023/05/16 03:39:50;;;;;;;11.48;9.10;;;;;;;14.03;100.00;64429.97;5071986;28;20280;-58
2023/05/16 03:42:17;;;;;;;10.23;8.27;;;;;;;13.96;100.00;64420.31;5072300;28;20683;-59
2023/05/16 03:44:43;;;;;;;11.00;8.48;;;;;;;14.03;100.00;64430.53;5071832;28;20205;-59
2023/05/16 03:47:09;;;;;;;11.95;8.02;;;;;;;14.03;100.00;64427.44;5072187;28;20211;-59
2023/05/16 03:49:35;;;;;;;12.38;8.77;;;;;;;13.95;100.00;64421.19;5071795;28;20722;-59
2023/05/16 03:52:02;;;;;;;15.37;8.87;;;;;;;13.99;100.00;64423.06;5071815;28;20224;-59
2023/05/16 03:54:28;;;;;;;13.18;8.23;;;;;;;13.91;100.00;64416.81;5071707;28;20287;-59
2023/05/16 03:56:53;;;;;;;14.80;10.15;;;;;;;14.07;100.00;64432.41;5071950;28;20547;-58
2023/05/16 03:59:18;;;;;;;12.43;8.83;;;;;;;14.03;100.00;64430.53;5071941;28;20212;-58
2023/05/16 04:01:44;;;;;;;14.07;9.75;;;;;;;13.95;100.00;64424.28;5071866;28;20682;-58
2023/05/16 04:04:09;;;;;;;14.63;9.60;;;;;;;14.04;100.00;64428.53;5071953;28;20774;-61
2023/05/16 04:06:35;;;;;;;16.40;9.70;;;;;;;14.18;100.00;64447.00;5071739;28;20200;-59
2023/05/16 04:09:00;;;;;;;17.25;9.48;;;;;;;14.13;100.00;64440.97;5071512;28;20224;-58
2023/05/16 04:11:26;;;;;;;11.82;8.52;;;;;;;14.43;100.00;64473.38;5071687;28;20199;-59
2023/05/16 04:13:52;;;;;;;18.08;10.23;;;;;;;14.38;100.00;64467.91;5071601;28;20752;-59
2023/05/16 04:16:18;;;;;;;15.43;9.80;;;;;;;14.26;100.00;64455.78;5071562;28;20215;-60
2023/05/16 04:18:44;;;;;;;13.13;9.40;;;;;;;14.28;100.00;64458.00;5071551;28;20706;-59
2023/05/16 04:21:13;;;;;;;15.50;10.33;;;;;;;14.29;100.00;64458.56;5071414;28;20612;-59
2023/05/16 04:23:39;;;;;;;13.23;9.05;;;;;;;14.39;100.00;64469.53;5071261;28;20702;-60
2023/05/16 04:26:05;;;;;;;18.63;10.63;;;;;;;14.41;100.00;64474.28;5071308;28;20181;-59
2023/05/16 04:28:30;;;;;;;13.80;9.50;;;;;;;14.51;100.00;64479.66;5071407;28;20543;-58
2023/05/16 04:30:56;;;;;;;16.63;10.50;;;;;;;14.62;100.00;64497.38;5071339;28;20208;-59
2023/05/16 04:33:21;;;;;;;17.83;13.17;;;;;;;14.51;100.00;64482.72;5071400;28;20220;-59
2023/05/16 04:35:47;;;;;;;13.05;11.38;;;;;;;14.56;100.00;64487.69;5071289;28;20272;-59
2023/05/16 04:38:12;;;;;;;21.85;12.32;;;;;;;14.50;100.00;64481.66;5053183;28;20212;-58
2023/05/16 04:40:40;;;;;;;16.65;10.43;;;;;;;14.68;100.00;64501.44;5071337;28;20560;-60
2023/05/16 04:43:06;;;;;;;13.57;9.90;;;;;;;14.95;100.00;64528.00;5070534;28;20209;-60
2023/05/16 04:45:32;;;;;;;14.95;10.85;;;;;;;14.86;100.00;64518.13;5070995;28;20188;-58
2023/05/16 04:47:57;;;;;;;16.48;11.35;;;;;;;14.84;100.00;64516.47;5070949;28;20192;-60
2023/05/16 04:50:22;;;;;;;13.35;10.75;;;;;;;14.77;100.00;64511.31;5071021;28;20569;-59
2023/05/16 04:52:48;;;;;;;18.23;10.30;;;;;;;14.66;100.00;64496.69;5071024;28;20307;-60
2023/05/16 04:55:13;;;;;;;15.67;10.67;;;;;;;14.58;100.00;64489.88;5070743;28;20193;-59
2023/05/16 04:57:39;;;;;;;15.57;11.70;;;;;;;14.58;100.00;64490.44;5071076;28;20189;-60
2023/05/16 05:00:12;;;;;;;18.83;10.68;;;;;;;14.48;100.00;64476.91;5070734;28;20598;-63
2023/05/16 05:02:44;;;;;;;17.65;12.25;;;;;;;14.45;100.00;64476.13;5070859;28;20200;-60
2023/05/16 05:05:10;;;;;;;19.40;12.55;;;;;;;14.62;100.00;64491.75;5070500;28;20777;-60
2023/05/16 05:07:35;;;;;;;13.52;12.07;;;;;;;14.65;100.00;64498.13;5069092;28;20185;-57
2023/05/16 05:10:01;;;;;;;16.30;12.60;;;;;;;14.60;100.00;64487.56;5070422;28;20203;-60
2023/05/16 05:12:26;;;;;;;17.97;13.37;;;;;;;14.74;100.00;64508.03;5070761;28;20584;-59
2023/05/16 05:14:52;;;;;;;23.33;11.88;;;;;;;14.66;100.00;64496.69;5070255;28;20686;-59
2023/05/16 05:17:19;;;;;;;13.90;11.15;;;;;;;14.60;100.00;64495.16;5068506;28;20196;-59
2023/05/16 05:19:45;;;;;;;25.90;12.02;;;;;;;14.74;100.00;64510.00;5068766;28;20208;-59
2023/05/16 05:22:11;;;;;;;16.88;12.00;;;;;;;14.60;100.00;64489.53;5069483;28;20311;-60
2023/05/16 05:24:36;;;;;;;17.48;11.80;;;;;;;14.62;100.00;64497.38;5070043;28;20254;-59
2023/05/16 05:27:02;;;;;;;19.60;12.75;;;;;;;14.54;100.00;64483.50;5070238;28;20189;-60
2023/05/16 05:29:27;;;;;;;19.10;11.50;;;;;;;14.50;100.00;64481.09;5070124;28;20396;-60
2023/05/16 05:31:52;;;;;;;18.25;11.75;;;;;;;14.53;100.00;64484.38;5070096;28;20578;-60
2023/05/16 05:34:18;;;;;;;15.85;11.63;;;;;;;14.59;100.00;64491.53;5070263;28;20218;-61
2023/05/16 05:36:43;;;;;;;14.63;12.10;;;;;;;14.70;100.00;64500.53;5070503;28;20188;-60
2023/05/16 05:39:09;;;;;;;29.92;12.82;;;;;;;14.82;100.00;64516.25;5070230;28;20247;-62
2023/05/16 05:41:35;;;;;;;22.48;11.77;;;;;;;14.85;100.00;64517.00;5070125;28;20196;-61
2023/05/16 05:44:00;;;;;;;17.60;12.48;;;;;;;14.66;100.00;64498.66;5070162;28;20213;-60
2023/05/16 05:46:26;;;;;;;15.32;11.43;;;;;;;14.80;100.00;64514.06;5070302;28;20197;-60
2023/05/16 05:48:51;;;;;;;15.73;12.15;;;;;;;14.80;100.00;64514.63;5070018;28;20205;-59
2023/05/16 05:51:18;;;;;;;18.92;11.10;;;;;;;14.75;100.00;64509.09;5070041;28;20211;-59
2023/05/16 05:53:43;;;;;;;14.20;10.75;;;;;;;14.80;100.00;64514.06;5070011;28;20228;-60
2023/05/16 05:56:08;;;;;;;16.25;11.52;;;;;;;14.74;100.00;64505.47;5055504;28;20180;-59
2023/05/16 05:58:34;;;;;;;15.60;10.68;;;;;;;14.83;100.00;64517.34;5073507;28;20709;-61
2023/05/16 06:00:59;;;;;;;13.57;10.45;;;;;;;14.77;100.00;64508.78;5073690;28;20638;-63
2023/05/16 06:03:25;;;;;;;14.85;11.82;;;;;;;14.88;100.00;64522.84;5073681;28;20228;-60
2023/05/16 06:05:50;;;;;;;20.33;11.52;;;;;;;14.89;100.00;64521.41;5073432;28;20267;-61
2023/05/16 06:08:22;;;;;;;15.18;10.30;;;;;;;14.94;100.00;64526.91;5073543;28;20216;-61
2023/05/16 06:10:48;;;;;;;15.98;10.70;;;;;;;14.97;100.00;64530.75;5073604;28;20755;-60
2023/05/16 06:13:13;;;;;;;14.30;10.60;;;;;;;15.08;100.00;64544.84;5073465;28;20295;-61
2023/05/16 06:15:38;;;;;;;16.63;10.68;;;;;;;14.99;100.00;64532.94;5073510;28;20191;-61
2023/05/16 06:18:04;;;;;;;16.02;9.93;;;;;;;14.96;100.00;64532.19;5073280;28;20212;-60
2023/05/16 06:20:29;;;;;;;10.85;9.10;;;;;;;14.98;100.00;64536.94;5073122;28;20612;-61
2023/05/16 06:22:55;;;;;;;18.20;10.25;;;;;;;15.05;100.00;64542.09;5073535;28;20220;-60
2023/05/16 06:25:21;;;;;;;16.30;9.32;;;;;;;15.06;100.00;64540.66;5073370;28;20188;-60
2023/05/16 06:27:46;;;;;;;11.93;9.50;;;;;;;15.08;100.00;64542.84;5072969;28;20185;-61
2023/05/16 06:30:12;;;;;;;14.50;9.57;;;;;;;15.02;100.00;64535.69;5073066;28;20219;-61
2023/05/16 06:32:39;;;;;;;15.15;10.07;;;;;;;15.02;100.00;64533.72;5073109;28;20235;-59
2023/05/16 06:35:05;;;;;;;14.60;9.68;;;;;;;15.05;100.00;64539.53;5073139;28;20228;-59
2023/05/16 06:37:31;;;;;;;17.83;9.80;;;;;;;15.00;100.00;64533.50;5073189;28;20189;-58
2023/05/16 06:39:56;;;;;;;15.00;9.43;;;;;;;14.99;100.00;64532.94;5073022;28;20232;-59
2023/05/16 06:42:22;;;;;;;15.18;10.98;;;;;;;15.03;100.00;64537.34;5072956;28;20280;-60
2023/05/16 06:44:48;;;;;;;16.20;10.68;;;;;;;15.10;100.00;64547.59;5072875;28;20296;-60
2023/05/16 06:47:13;;;;;;;16.88;9.32;;;;;;;15.12;100.00;64549.25;5073069;28;20576;-59
2023/05/16 06:49:38;;;;;;;16.50;8.98;;;;;;;15.11;100.00;64548.13;5072845;28;20620;-58
2023/05/16 06:52:04;;;;;;;12.50;8.40;;;;;;;15.13;100.00;64553.41;5073061;28;20223;-57
2023/05/16 06:54:29;;;;;;;15.32;9.05;;;;;;;15.20;100.00;64558.03;5072732;28;20279;-59
2023/05/16 06:56:55;;;;;;;11.98;8.48;;;;;;;15.29;100.00;64564.84;5072834;28;20321;-56
2023/05/16 06:59:20;;;;;;;13.93;8.55;;;;;;;15.26;100.00;64564.63;5072764;28;20200;-57
2023/05/16 07:01:45;;;;;;;11.18;8.10;;;;;;;15.35;100.00;64573.97;5072227;28;20659;-57
2023/05/16 07:04:11;;;;;;;11.90;8.90;;;;;;;15.31;100.00;64569.59;5072498;28;20204;-57
2023/05/16 07:06:36;;;;;;;18.60;8.73;;;;;;;15.40;100.00;64582.00;5071897;28;20276;-57
2023/05/16 07:09:02;;;;;;;11.18;7.82;;;;;;;15.30;100.00;64565.94;5072594;28;20205;-58
2023/05/16 07:11:27;;;;;;;12.57;8.05;;;;;;;15.30;100.00;64566.50;5072557;28;20706;-57
2023/05/16 07:13:53;;;;;;;10.43;8.48;;;;;;;15.29;100.00;64564.84;5072426;28;20205;-60
2023/05/16 07:16:18;;;;;;;14.13;8.38;;;;;;;15.29;100.00;64565.38;5072306;28;20724;-57
2023/05/16 07:18:44;;;;;;;19.00;9.32;;;;;;;15.33;100.00;64574.84;5072333;28;20201;-56
2023/05/16 07:21:10;;;;;;;14.73;9.55;;;;;;;15.42;100.00;64579.13;5072187;28;20264;-55
2023/05/16 07:23:35;;;;;;;13.05;8.43;;;;;;;15.44;100.00;64581.91;5072164;28;20291;-57
2023/05/16 07:26:01;;;;;;;11.82;8.60;;;;;;;15.50;100.00;64590.50;5071977;28;20618;-58
2023/05/16 07:28:27;;;;;;;9.70;8.43;;;;;;;15.50;100.00;64590.50;5072321;28;20262;-57
2023/05/16 07:30:52;;;;;;;15.45;8.57;;;;;;;15.54;100.00;64592.91;5072332;28;20635;-56
2023/05/16 07:33:17;;;;;;;17.42;9.52;;;;;;;15.61;100.00;64600.63;5072469;28;20263;-56
2023/05/16 07:35:43;;;;;;;14.18;10.60;;;;;;;15.68;100.00;64607.75;5070802;28;20233;-58
2023/05/16 07:38:09;;;;;;;15.05;9.85;;;;;;;15.64;100.00;64606.44;5071926;28;20258;-60
2023/05/16 07:40:34;;;;;;;12.23;8.38;;;;;;;15.63;100.00;64602.81;5071985;28;20255;-57
2023/05/16 07:43:01;;;;;;;14.88;8.10;;;;;;;15.69;100.00;64608.84;5071842;28;20193;-60
2023/05/16 07:45:27;;;;;;;13.45;8.93;;;;;;;15.72;100.00;64615.25;5071857;28;20189;-59
2023/05/16 07:47:52;;;;;;;15.00;9.00;;;;;;;15.79;100.00;64620.41;5071595;28;20651;-60
2023/05/16 07:50:18;;;;;;;14.32;8.90;;;;;;;15.72;100.00;64612.16;5071899;28;20276;-58
2023/05/16 07:52:43;;;;;;;9.32;8.32;;;;;;;15.80;100.00;64623.50;5072070;28;20667;-56
2023/05/16 07:55:09;;;;;;;17.65;9.85;;;;;;;15.83;100.00;64624.25;5071713;28;20234;-57
2023/05/16 07:57:35;;;;;;;13.82;9.00;;;;;;;15.85;100.00;64624.47;5071923;28;20196;-57
2023/05/16 08:00:01;;;;;;;18.17;9.10;;;;;;;15.80;100.00;64621.50;5071641;28;20204;-59
2023/05/16 08:02:29;;;;;;;13.07;8.38;;;;;;;15.97;100.00;64639.66;5071823;28;20264;-58
2023/05/16 08:04:56;;;;;;;10.75;8.88;;;;;;;16.04;100.00;64647.34;5071541;28;20245;-57
2023/05/16 08:07:22;;;;;;;15.52;8.82;;;;;;;16.05;100.00;64648.47;5071429;28;20189;-58
2023/05/16 08:09:48;;;;;;;12.30;8.82;;;;;;;16.28;100.00;64673.78;5071299;28;20219;-58
2023/05/16 08:12:13;;;;;;;12.32;8.48;;;;;;;16.32;100.00;64675.63;5071677;28;20212;-59
2023/05/16 08:14:38;;;;;;;13.48;8.55;;;;;;;16.37;100.00;64681.13;5071473;28;20216;-57
2023/05/16 08:17:04;;;;;;;17.33;9.13;;;;;;;16.44;100.00;64688.84;5071623;28;20212;-58
2023/05/16 08:19:31;;;;;;;14.13;8.43;;;;;;;16.54;100.00;64704.94;5070107;28;20706;-57
2023/05/16 08:21:57;;;;;;;14.70;8.48;;;;;;;16.46;100.00;64693.59;5071494;28;20193;-58
2023/05/16 08:24:22;;;;;;;13.85;8.50;;;;;;;16.53;100.00;64701.31;5071399;28;20637;-57
2023/05/16 08:26:48;;;;;;;17.90;8.60;;;;;;;16.60;100.00;64709.00;5071392;28;20278;-55
2023/05/16 08:29:13;;;;;;;12.15;8.15;;;;;;;16.62;100.00;64710.69;5071139;28;20297;-56
2023/05/16 08:31:39;;;;;;;12.38;7.18;;;;;;;16.61;100.00;64710.13;5071053;28;20192;-57
2023/05/16 08:34:05;;;;;;;12.43;7.95;;;;;;;16.57;100.00;64707.72;5071341;28;20200;-58
2023/05/16 08:36:33;;;;;;;11.00;7.28;;;;;;;16.60;100.00;64711.56;5071004;28;20205;-57
2023/05/16 08:38:59;;;;;;;11.13;7.57;;;;;;;16.67;99.97;64713.63;5071124;28;20208;-57
2023/05/16 08:41:25;;;;;;;12.18;7.60;;;;;;;16.79;99.73;64729.94;5071279;28;20193;-57
2023/05/16 08:43:51;;;;;;;9.63;7.80;;;;;;;16.85;99.83;64735.47;5070989;28;20609;-57
2023/05/16 08:46:21;;;;;;;12.85;7.35;;;;;;;16.92;97.84;64743.16;5071078;28;20189;-57
2023/05/16 08:48:53;;;;;;;11.57;7.18;;;;;;;17.05;97.06;64757.50;5071083;28;20213;-58
2023/05/16 08:51:19;;;;;;;12.18;8.43;;;;;;;17.14;97.65;64767.41;5071054;28;20197;-57
2023/05/16 08:53:52;;;;;;;10.02;7.78;;;;;;;17.38;93.83;64791.28;5070790;28;20212;-57
2023/05/16 08:56:21;;;;;;;17.30;7.57;;;;;;;17.59;95.22;64817.00;5071082;28;20193;-57
2023/05/16 08:58:47;;;;;;;14.02;7.82;;;;;;;17.78;95.38;64840.50;5070768;28;20734;-57
2023/05/16 09:01:14;;;;;;;11.60;7.47;;;;;;;18.04;96.18;64863.50;5070740;28;20188;-58
2023/05/16 09:03:41;;;;;;;16.23;7.60;;;;;;;18.10;95.23;64875.22;5070954;28;20748;-57
2023/05/16 09:06:06;;;;;;;12.38;8.05;;;;;;;18.19;95.77;64883.16;5070894;28;20189;-59
2023/05/16 09:08:33;;;;;;;13.10;7.95;;;;;;;18.13;94.18;64876.53;5070886;28;20764;-57
2023/05/16 09:11:00;;;;;;;17.10;8.52;;;;;;;18.21;94.68;64885.34;5070625;28;20711;-58
2023/05/16 09:13:25;;;;;;;15.50;8.43;;;;;;;17.93;94.63;64854.47;5070453;28;20249;-57
2023/05/16 09:16:25;;;;;;;12.73;7.38;;;;;;;17.97;93.30;64856.34;5070697;28;20720;-56
2023/05/16 09:18:55;;;;;;;11.15;7.65;;;;;;;18.12;93.63;64875.41;5070624;28;20218;-56
2023/05/16 09:21:22;;;;;;;10.93;7.47;;;;;;;18.05;96.10;64867.16;5070684;28;20189;-57
2023/05/16 09:23:49;;;;;;;8.73;6.53;;;;;;;17.88;91.39;64848.97;5070630;28;20266;-56
2023/05/16 09:26:15;;;;;;;11.35;7.85;;;;;;;17.94;93.40;64855.03;5070671;28;20271;-58
2023/05/16 09:28:42;;;;;;;11.52;7.03;;;;;;;17.84;91.53;64844.56;5070444;28;20641;-56
2023/05/16 09:31:25;;;;;;;12.00;7.50;;;;;;;17.76;92.07;64832.63;5069689;28;20662;-56
2023/05/16 09:33:59;;;;;;;9.98;7.15;;;;;;;17.67;92.73;64823.28;5069847;28;20210;-56
2023/05/16 09:36:25;;;;;;;9.93;6.53;;;;;;;17.77;93.18;64836.28;5069664;28;20253;-56
2023/05/16 09:38:51;;;;;;;11.70;7.47;;;;;;;17.79;92.91;64839.06;5070164;28;20686;-58
2023/05/16 09:41:16;;;;;;;13.50;6.88;;;;;;;17.77;93.96;64836.28;5070121;28;20325;-62
2023/05/16 09:43:43;;;;;;;11.07;6.78;;;;;;;17.81;92.78;64840.69;5070117;28;20258;-61
2023/05/16 09:46:15;;;;;;;14.43;7.18;;;;;;;17.76;93.16;64833.19;5069954;28;20181;-58
2023/05/16 09:48:47;;;;;;;9.60;5.85;;;;;;;17.77;91.37;64836.84;5070135;28;20211;-56
2023/05/16 09:51:14;;;;;;;10.65;7.05;;;;;;;17.77;91.71;64836.28;5068745;28;20272;-56
2023/05/16 09:53:40;;;;;;;12.25;7.88;;;;;;;17.83;91.96;64843.47;5070078;28;20227;-57
2023/05/16 09:56:13;;;;;;;9.90;6.63;;;;;;;18.05;91.40;64865.16;5070037;28;20219;-58
2023/05/16 09:58:40;;;;;;;14.45;7.15;;;;;;;18.05;90.99;64867.72;5069901;28;20238;-61
2023/05/16 10:01:07;;;;;;;11.13;7.60;;;;;;;18.14;90.71;64877.63;5069743;28;20180;-60
2023/05/16 10:03:35;;;;;;;10.68;6.93;;;;;;;18.13;90.30;64875.97;5069663;28;20690;-61
2023/05/16 10:06:02;;;;;;;7.88;7.03;;;;;;;18.22;89.24;64885.91;5069610;28;20603;-60
2023/05/16 10:08:31;;;;;;;12.80;6.88;;;;;;;18.37;88.38;64903.00;5069566;28;20210;-60
2023/05/16 10:10:56;;;;;;;12.20;7.88;;;;;;;18.30;88.49;64895.28;5051663;28;20192;-60
2023/05/16 10:13:27;;;;;;;9.50;7.03;;;;;;;18.25;88.78;64891.75;5069855;28;20220;-60
2023/05/16 10:15:55;;;;;;;12.10;7.03;;;;;;;18.17;88.88;64882.94;5069786;28;20173;-59
2023/05/16 10:18:23;;;;;;;14.73;7.40;;;;;;;18.24;89.59;64886.09;5069746;28;20302;-60
2023/05/16 10:20:54;;;;;;;10.75;7.90;;;;;;;18.23;89.89;64887.56;5069618;28;20271;-60
2023/05/16 10:23:20;;;;;;;16.52;7.90;;;;;;;18.28;89.63;64889.97;5069779;28;20669;-55
2023/05/16 10:25:48;;;;;;;13.75;7.70;;;;;;;18.29;90.31;64896.72;5069437;28;20216;-56
2023/05/16 10:28:15;;;;;;;10.18;8.15;;;;;;;18.37;90.21;64905.56;5069290;28;20240;-56
2023/05/16 10:30:43;;;;;;;13.23;7.57;;;;;;;18.50;89.82;64916.25;5069546;28;20181;-56
2023/05/16 10:33:16;;;;;;;10.52;7.72;;;;;;;18.65;91.28;64932.78;5069837;28;20216;-56
2023/05/16 10:35:43;;;;;;;11.75;7.80;;;;;;;18.72;87.17;64940.53;5069439;28;20180;-57
2023/05/16 10:38:11;;;;;;;15.98;7.47;;;;;;;18.65;86.68;64930.25;5069598;28;20244;-56
2023/05/16 10:40:38;;;;;;;15.30;6.97;;;;;;;18.65;87.89;64930.78;5069362;28;20769;-56
2023/05/16 10:43:07;;;;;;;10.35;6.47;;;;;;;18.78;87.01;64947.16;5072215;28;20220;-56
2023/05/16 10:45:33;;;;;;;10.20;6.38;;;;;;;18.93;87.15;64964.25;5072872;28;20295;-56
2023/05/16 10:48:02;;;;;;;10.63;7.07;;;;;;;18.99;84.09;64970.84;5072681;28;20193;-58
2023/05/16 10:50:43;;;;;;;18.92;8.18;;;;;;;19.18;84.00;64989.28;5072805;28;20219;-60
2023/05/16 10:53:11;;;;;;;16.83;8.60;;;;;;;19.24;84.16;64998.47;5073093;28;20227;-57
2023/05/16 10:55:50;;;;;;;12.27;7.40;;;;;;;19.35;83.96;65010.06;5072983;28;20232;-56
2023/05/16 10:58:31;;;;;;;11.27;7.03;;;;;;;19.31;85.43;65005.63;5072925;28;20215;-56
2023/05/16 11:01:23;;;;;;;17.55;8.45;;;;;;;19.34;83.19;65005.84;5072796;28;20199;-56
2023/05/16 11:04:01;;;;;;;13.18;7.85;;;;;;;19.31;83.67;65005.63;5072456;28;20243;-60
2023/05/16 11:06:48;;;;;;;13.45;7.47;;;;;;;19.17;83.12;64993.28;5072603;28;20189;-58
2023/05/16 11:09:22;;;;;;;16.55;7.20;;;;;;;19.15;83.39;64987.97;5072346;28;20299;-60
2023/05/16 11:11:50;;;;;;;16.63;7.28;;;;;;;19.12;83.72;64984.66;5072369;28;20216;-61
2023/05/16 11:14:27;;;;;;;11.45;7.68;;;;;;;19.07;84.60;64976.56;5072202;28;20614;-57
2023/05/16 11:17:13;;;;;;;10.98;7.80;;;;;;;19.00;86.32;64971.41;5072709;28;20189;-57
2023/05/16 11:19:46;;;;;;;11.73;6.75;;;;;;;18.92;85.32;64962.59;5072233;28;20201;-57